sensor_id;sensor_type;location;lat;lon;timestamp;temperature;humidity
28530;DHT22;15737;49.760;6.632;2023-03-21T00:00:57;8.70;99.90
28530;DHT22;15737;49.760;6.632;2023-03-21T00:03:23;8.70;99.90
28530;DHT22;15737;49.760;6.632;2023-03-21T00:05:50;8.70;99.90
28530;DHT22;15737;49.760;6.632;2023-03-21T00:08:18;8.70;99.90
28530;DHT22;15737;49.760;6.632;2023-03-21T00:10:45;8.70;99.90
28530;DHT22;15737;49.760;6.632;2023-03-21T00:13:11;8.70;99.90
28530;DHT22;15737;49.760;6.632;2023-03-21T00:15:37;8.60;99.90
28530;DHT22;15737;49.760;6.632;2023-03-21T00:18:17;8.70;99.90
28530;DHT22;15737;49.760;6.632;2023-03-21T00:20:42;8.70;99.90
28530;DHT22;15737;49.760;6.632;2023-03-21T00:23:11;8.70;99.90
28530;DHT22;15737;49.760;6.632;2023-03-21T00:25:37;8.70;99.90
28530;DHT22;15737;49.760;6.632;2023-03-21T00:28:03;8.70;99.90
28530;DHT22;15737;49.760;6.632;2023-03-21T00:30:28;8.70;99.90
28530;DHT22;15737;49.760;6.632;2023-03-21T00:32:54;8.80;99.90
28530;DHT22;15737;49.760;6.632;2023-03-21T00:35:19;8.90;99.90
28530;DHT22;15737;49.760;6.632;2023-03-21T00:37:45;9.00;99.90
28530;DHT22;15737;49.760;6.632;2023-03-21T00:40:11;9.00;99.90
28530;DHT22;15737;49.760;6.632;2023-03-21T00:42:37;9.10;99.90
28530;DHT22;15737;49.760;6.632;2023-03-21T00:45:03;9.10;99.90
28530;DHT22;15737;49.760;6.632;2023-03-21T00:47:29;9.10;99.90
28530;DHT22;15737;49.760;6.632;2023-03-21T00:49:55;9.10;99.90
28530;DHT22;15737;49.760;6.632;2023-03-21T00:54:50;9.00;99.90
28530;DHT22;15737;49.760;6.632;2023-03-21T00:57:16;9.00;99.90
28530;DHT22;15737;49.760;6.632;2023-03-21T00:59:42;9.10;99.90
28530;DHT22;15737;49.760;6.632;2023-03-21T01:02:08;9.20;99.90
28530;DHT22;15737;49.760;6.632;2023-03-21T01:04:38;9.20;99.90
28530;DHT22;15737;49.760;6.632;2023-03-21T01:07:04;9.30;99.90
28530;DHT22;15737;49.760;6.632;2023-03-21T01:09:29;9.20;99.90
28530;DHT22;15737;49.760;6.632;2023-03-21T01:11:55;9.10;99.90
28530;DHT22;15737;49.760;6.632;2023-03-21T01:14:22;9.00;99.90
28530;DHT22;15737;49.760;6.632;2023-03-21T01:16:51;8.90;99.90
28530;DHT22;15737;49.760;6.632;2023-03-21T01:19:19;8.90;99.90
28530;DHT22;15737;49.760;6.632;2023-03-21T01:21:44;8.80;99.90
28530;DHT22;15737;49.760;6.632;2023-03-21T01:24:13;8.70;99.90
28530;DHT22;15737;49.760;6.632;2023-03-21T01:26:47;8.70;99.90
28530;DHT22;15737;49.760;6.632;2023-03-21T01:29:13;8.70;99.90
28530;DHT22;15737;49.760;6.632;2023-03-21T01:31:45;8.60;99.90
28530;DHT22;15737;49.760;6.632;2023-03-21T01:34:18;8.60;99.90
28530;DHT22;15737;49.760;6.632;2023-03-21T01:36:47;8.60;99.90
28530;DHT22;15737;49.760;6.632;2023-03-21T01:39:12;8.60;99.90
28530;DHT22;15737;49.760;6.632;2023-03-21T01:41:40;8.70;99.90
28530;DHT22;15737;49.760;6.632;2023-03-21T01:44:17;8.70;99.90
28530;DHT22;15737;49.760;6.632;2023-03-21T01:46:46;8.60;99.90
28530;DHT22;15737;49.760;6.632;2023-03-21T01:49:29;8.50;99.90
28530;DHT22;15737;49.760;6.632;2023-03-21T01:52:08;8.50;99.90
28530;DHT22;15737;49.760;6.632;2023-03-21T01:54:37;8.40;99.90
28530;DHT22;15737;49.760;6.632;2023-03-21T01:57:32;8.40;99.90
28530;DHT22;15737;49.760;6.632;2023-03-21T02:00:03;8.50;99.90
28530;DHT22;15737;49.760;6.632;2023-03-21T02:02:46;8.50;99.90
28530;DHT22;15737;49.760;6.632;2023-03-21T02:05:29;8.50;99.90
28530;DHT22;15737;49.760;6.632;2023-03-21T02:07:58;8.60;99.90
28530;DHT22;15737;49.760;6.632;2023-03-21T02:10:24;8.70;99.90
28530;DHT22;15737;49.760;6.632;2023-03-21T02:12:51;8.80;99.90
28530;DHT22;15737;49.760;6.632;2023-03-21T02:15:20;8.90;99.90
28530;DHT22;15737;49.760;6.632;2023-03-21T02:18:03;8.90;99.90
28530;DHT22;15737;49.760;6.632;2023-03-21T02:32:34;8.50;99.90
28530;DHT22;15737;49.760;6.632;2023-03-21T02:38:09;8.60;99.90
28530;DHT22;15737;49.760;6.632;2023-03-21T02:40:48;8.70;99.90
28530;DHT22;15737;49.760;6.632;2023-03-21T02:46:29;8.70;99.90
28530;DHT22;15737;49.760;6.632;2023-03-21T02:49:08;8.70;99.90
28530;DHT22;15737;49.760;6.632;2023-03-21T02:51:42;8.70;99.90
28530;DHT22;15737;49.760;6.632;2023-03-21T02:54:16;8.60;99.90
28530;DHT22;15737;49.760;6.632;2023-03-21T02:56:43;8.60;99.90
28530;DHT22;15737;49.760;6.632;2023-03-21T02:59:10;8.70;99.90
28530;DHT22;15737;49.760;6.632;2023-03-21T03:01:36;8.90;99.90
28530;DHT22;15737;49.760;6.632;2023-03-21T03:04:02;9.10;99.90
28530;DHT22;15737;49.760;6.632;2023-03-21T03:06:45;9.10;99.90
28530;DHT22;15737;49.760;6.632;2023-03-21T03:21:28;8.70;99.90
28530;DHT22;15737;49.760;6.632;2023-03-21T03:26:36;8.70;99.90
28530;DHT22;15737;49.760;6.632;2023-03-21T03:29:09;8.70;99.90
28530;DHT22;15737;49.760;6.632;2023-03-21T03:31:47;8.80;99.90
28530;DHT22;15737;49.760;6.632;2023-03-21T03:34:17;8.90;99.90
28530;DHT22;15737;49.760;6.632;2023-03-21T03:36:47;9.10;99.90
28530;DHT22;15737;49.760;6.632;2023-03-21T03:39:41;9.10;99.90
28530;DHT22;15737;49.760;6.632;2023-03-21T03:42:33;9.10;99.90
28530;DHT22;15737;49.760;6.632;2023-03-21T03:45:04;9.00;99.90
28530;DHT22;15737;49.760;6.632;2023-03-21T03:47:46;8.90;99.90
28530;DHT22;15737;49.760;6.632;2023-03-21T03:50:29;9.10;99.90
28530;DHT22;15737;49.760;6.632;2023-03-21T03:53:01;9.10;99.90
28530;DHT22;15737;49.760;6.632;2023-03-21T03:55:29;8.90;99.90
28530;DHT22;15737;49.760;6.632;2023-03-21T03:57:59;8.70;99.90
28530;DHT22;15737;49.760;6.632;2023-03-21T04:00:25;8.60;99.90
28530;DHT22;15737;49.760;6.632;2023-03-21T04:02:53;8.40;99.90
28530;DHT22;15737;49.760;6.632;2023-03-21T04:05:18;8.40;99.90
28530;DHT22;15737;49.760;6.632;2023-03-21T04:07:46;8.30;99.90
28530;DHT22;15737;49.760;6.632;2023-03-21T04:10:13;8.30;99.90
28530;DHT22;15737;49.760;6.632;2023-03-21T04:12:39;8.30;99.90
28530;DHT22;15737;49.760;6.632;2023-03-21T04:15:05;8.40;99.90
28530;DHT22;15737;49.760;6.632;2023-03-21T04:17:31;8.40;99.90
28530;DHT22;15737;49.760;6.632;2023-03-21T04:19:57;8.40;99.90
28530;DHT22;15737;49.760;6.632;2023-03-21T04:22:23;8.40;99.90
28530;DHT22;15737;49.760;6.632;2023-03-21T04:24:49;8.40;99.90
28530;DHT22;15737;49.760;6.632;2023-03-21T04:29:47;8.50;99.90
28530;DHT22;15737;49.760;6.632;2023-03-21T04:32:13;8.60;99.90
28530;DHT22;15737;49.760;6.632;2023-03-21T04:34:42;8.60;99.90
28530;DHT22;15737;49.760;6.632;2023-03-21T04:37:16;8.60;99.90
28530;DHT22;15737;49.760;6.632;2023-03-21T04:39:42;8.60;99.90
28530;DHT22;15737;49.760;6.632;2023-03-21T04:42:18;8.60;99.90
28530;DHT22;15737;49.760;6.632;2023-03-21T04:44:44;8.70;99.90
28530;DHT22;15737;49.760;6.632;2023-03-21T04:47:10;8.70;99.90
28530;DHT22;15737;49.760;6.632;2023-03-21T04:49:37;8.70;99.90
28530;DHT22;15737;49.760;6.632;2023-03-21T04:52:03;8.60;99.90
28530;DHT22;15737;49.760;6.632;2023-03-21T04:54:29;8.60;99.90
28530;DHT22;15737;49.760;6.632;2023-03-21T04:56:54;8.50;99.90
28530;DHT22;15737;49.760;6.632;2023-03-21T04:59:20;8.50;99.90
28530;DHT22;15737;49.760;6.632;2023-03-21T05:01:46;8.40;99.90
28530;DHT22;15737;49.760;6.632;2023-03-21T05:04:13;8.40;99.90
28530;DHT22;15737;49.760;6.632;2023-03-21T05:06:39;8.40;99.90
28530;DHT22;15737;49.760;6.632;2023-03-21T05:09:08;8.40;99.90
28530;DHT22;15737;49.760;6.632;2023-03-21T05:11:35;8.40;99.90
28530;DHT22;15737;49.760;6.632;2023-03-21T05:14:03;8.40;99.90
28530;DHT22;15737;49.760;6.632;2023-03-21T05:16:29;8.50;99.90
28530;DHT22;15737;49.760;6.632;2023-03-21T05:18:56;8.60;99.90
28530;DHT22;15737;49.760;6.632;2023-03-21T05:21:24;8.60;99.90
28530;DHT22;15737;49.760;6.632;2023-03-21T05:23:49;8.60;99.90
28530;DHT22;15737;49.760;6.632;2023-03-21T05:26:32;8.70;99.90
28530;DHT22;15737;49.760;6.632;2023-03-21T05:28:58;8.70;99.90
28530;DHT22;15737;49.760;6.632;2023-03-21T05:31:23;8.70;99.90
28530;DHT22;15737;49.760;6.632;2023-03-21T05:33:49;8.80;99.90
28530;DHT22;15737;49.760;6.632;2023-03-21T05:36:14;8.70;99.90
28530;DHT22;15737;49.760;6.632;2023-03-21T05:38:40;8.80;99.90
28530;DHT22;15737;49.760;6.632;2023-03-21T05:41:10;8.80;99.90
28530;DHT22;15737;49.760;6.632;2023-03-21T05:43:36;8.70;99.90
28530;DHT22;15737;49.760;6.632;2023-03-21T05:46:01;8.60;99.90
28530;DHT22;15737;49.760;6.632;2023-03-21T05:48:26;8.40;99.90
28530;DHT22;15737;49.760;6.632;2023-03-21T05:51:01;8.40;99.90
28530;DHT22;15737;49.760;6.632;2023-03-21T05:53:27;8.20;99.90
28530;DHT22;15737;49.760;6.632;2023-03-21T05:55:53;8.20;99.90
28530;DHT22;15737;49.760;6.632;2023-03-21T05:58:18;8.20;99.90
28530;DHT22;15737;49.760;6.632;2023-03-21T06:00:44;8.30;99.90
28530;DHT22;15737;49.760;6.632;2023-03-21T06:03:10;8.30;99.90
28530;DHT22;15737;49.760;6.632;2023-03-21T06:05:35;8.40;99.90
28530;DHT22;15737;49.760;6.632;2023-03-21T06:08:01;8.40;99.90
28530;DHT22;15737;49.760;6.632;2023-03-21T06:10:26;8.50;99.90
28530;DHT22;15737;49.760;6.632;2023-03-21T06:12:52;8.50;99.90
28530;DHT22;15737;49.760;6.632;2023-03-21T06:15:18;8.60;99.90
28530;DHT22;15737;49.760;6.632;2023-03-21T06:17:49;8.70;99.90
28530;DHT22;15737;49.760;6.632;2023-03-21T06:20:15;8.70;99.90
28530;DHT22;15737;49.760;6.632;2023-03-21T06:22:40;8.80;99.90
28530;DHT22;15737;49.760;6.632;2023-03-21T06:25:06;8.90;99.90
28530;DHT22;15737;49.760;6.632;2023-03-21T06:27:33;9.00;99.90
28530;DHT22;15737;49.760;6.632;2023-03-21T06:29:59;9.10;99.90
28530;DHT22;15737;49.760;6.632;2023-03-21T06:32:25;9.20;99.90
28530;DHT22;15737;49.760;6.632;2023-03-21T06:34:51;9.20;99.90
28530;DHT22;15737;49.760;6.632;2023-03-21T06:37:16;9.30;99.90
28530;DHT22;15737;49.760;6.632;2023-03-21T06:39:42;9.30;99.90
28530;DHT22;15737;49.760;6.632;2023-03-21T06:42:08;9.30;99.90
28530;DHT22;15737;49.760;6.632;2023-03-21T06:44:33;9.30;99.90
28530;DHT22;15737;49.760;6.632;2023-03-21T06:46:59;9.30;99.90
28530;DHT22;15737;49.760;6.632;2023-03-21T06:49:25;9.30;99.90
28530;DHT22;15737;49.760;6.632;2023-03-21T06:51:51;9.40;99.90
28530;DHT22;15737;49.760;6.632;2023-03-21T06:54:17;9.60;99.90
28530;DHT22;15737;49.760;6.632;2023-03-21T06:56:43;9.50;99.90
28530;DHT22;15737;49.760;6.632;2023-03-21T06:59:19;9.50;99.90
28530;DHT22;15737;49.760;6.632;2023-03-21T07:01:45;9.50;99.90
28530;DHT22;15737;49.760;6.632;2023-03-21T07:04:10;9.40;99.90
28530;DHT22;15737;49.760;6.632;2023-03-21T07:06:36;9.30;99.90
28530;DHT22;15737;49.760;6.632;2023-03-21T07:09:02;9.30;99.90
28530;DHT22;15737;49.760;6.632;2023-03-21T07:11:31;9.30;99.90
28530;DHT22;15737;49.760;6.632;2023-03-21T07:14:13;9.30;99.90
28530;DHT22;15737;49.760;6.632;2023-03-21T07:16:39;9.30;99.90
28530;DHT22;15737;49.760;6.632;2023-03-21T07:19:05;9.40;99.90
28530;DHT22;15737;49.760;6.632;2023-03-21T07:21:32;9.40;99.90
28530;DHT22;15737;49.760;6.632;2023-03-21T07:23:58;9.40;99.90
28530;DHT22;15737;49.760;6.632;2023-03-21T07:26:24;9.50;99.90
28530;DHT22;15737;49.760;6.632;2023-03-21T07:28:49;9.50;99.90
28530;DHT22;15737;49.760;6.632;2023-03-21T07:31:15;9.50;99.90
28530;DHT22;15737;49.760;6.632;2023-03-21T07:33:42;9.50;99.90
28530;DHT22;15737;49.760;6.632;2023-03-21T07:36:13;9.60;99.90
28530;DHT22;15737;49.760;6.632;2023-03-21T07:38:40;9.60;99.90
28530;DHT22;15737;49.760;6.632;2023-03-21T07:41:05;9.60;99.90
28530;DHT22;15737;49.760;6.632;2023-03-21T07:43:31;9.70;99.90
28530;DHT22;15737;49.760;6.632;2023-03-21T07:45:57;9.70;99.90
28530;DHT22;15737;49.760;6.632;2023-03-21T07:48:22;9.70;99.90
28530;DHT22;15737;49.760;6.632;2023-03-21T07:50:49;9.70;99.90
28530;DHT22;15737;49.760;6.632;2023-03-21T07:53:14;9.70;99.90
28530;DHT22;15737;49.760;6.632;2023-03-21T07:55:40;9.60;99.90
28530;DHT22;15737;49.760;6.632;2023-03-21T07:58:05;9.60;99.90
28530;DHT22;15737;49.760;6.632;2023-03-21T08:00:31;9.70;99.90
28530;DHT22;15737;49.760;6.632;2023-03-21T08:02:57;9.70;99.90
28530;DHT22;15737;49.760;6.632;2023-03-21T08:08:01;9.60;99.90
28530;DHT22;15737;49.760;6.632;2023-03-21T08:10:27;9.50;99.90
28530;DHT22;15737;49.760;6.632;2023-03-21T08:12:53;9.60;99.90
28530;DHT22;15737;49.760;6.632;2023-03-21T08:15:19;9.70;99.90
28530;DHT22;15737;49.760;6.632;2023-03-21T08:17:44;9.80;99.90
28530;DHT22;15737;49.760;6.632;2023-03-21T08:20:13;9.90;99.90
28530;DHT22;15737;49.760;6.632;2023-03-21T08:22:58;10.00;99.90
28530;DHT22;15737;49.760;6.632;2023-03-21T08:25:24;10.10;99.90
28530;DHT22;15737;49.760;6.632;2023-03-21T08:27:52;10.00;99.90
28530;DHT22;15737;49.760;6.632;2023-03-21T08:30:21;10.10;99.90
28530;DHT22;15737;49.760;6.632;2023-03-21T08:32:47;10.10;99.90
28530;DHT22;15737;49.760;6.632;2023-03-21T08:40:23;9.90;99.90
28530;DHT22;15737;49.760;6.632;2023-03-21T08:42:49;9.80;99.90
28530;DHT22;15737;49.760;6.632;2023-03-21T08:45:16;9.80;99.90
28530;DHT22;15737;49.760;6.632;2023-03-21T08:47:42;9.90;99.90
28530;DHT22;15737;49.760;6.632;2023-03-21T08:52:52;9.70;99.90
28530;DHT22;15737;49.760;6.632;2023-03-21T08:55:18;9.40;99.90
28530;DHT22;15737;49.760;6.632;2023-03-21T08:57:44;9.20;99.90
28530;DHT22;15737;49.760;6.632;2023-03-21T09:00:12;9.10;99.90
28530;DHT22;15737;49.760;6.632;2023-03-21T09:02:43;9.10;99.90
28530;DHT22;15737;49.760;6.632;2023-03-21T09:07:48;9.40;99.90
28530;DHT22;15737;49.760;6.632;2023-03-21T09:10:16;9.50;99.90
28530;DHT22;15737;49.760;6.632;2023-03-21T09:12:42;9.60;99.90
28530;DHT22;15737;49.760;6.632;2023-03-21T09:15:12;9.90;99.90
28530;DHT22;15737;49.760;6.632;2023-03-21T09:17:39;10.00;99.90
28530;DHT22;15737;49.760;6.632;2023-03-21T09:22:49;10.40;99.90
28530;DHT22;15737;49.760;6.632;2023-03-21T09:25:16;10.60;99.90
28530;DHT22;15737;49.760;6.632;2023-03-21T09:27:43;10.70;99.90
28530;DHT22;15737;49.760;6.632;2023-03-21T09:30:11;10.80;99.90
28530;DHT22;15737;49.760;6.632;2023-03-21T09:32:37;10.60;99.90
28530;DHT22;15737;49.760;6.632;2023-03-21T09:40:22;10.30;99.90
28530;DHT22;15737;49.760;6.632;2023-03-21T09:43:47;10.40;99.90
28530;DHT22;15737;49.760;6.632;2023-03-21T09:46:18;10.40;99.90
28530;DHT22;15737;49.760;6.632;2023-03-21T09:49:04;10.50;99.90
28530;DHT22;15737;49.760;6.632;2023-03-21T09:51:41;10.70;99.90
28530;DHT22;15737;49.760;6.632;2023-03-21T09:54:39;10.80;99.90
28530;DHT22;15737;49.760;6.632;2023-03-21T09:59:59;10.90;99.90
28530;DHT22;15737;49.760;6.632;2023-03-21T10:02:34;10.90;99.90
28530;DHT22;15737;49.760;6.632;2023-03-21T10:05:33;11.00;99.90
28530;DHT22;15737;49.760;6.632;2023-03-21T10:08:29;11.20;99.90
28530;DHT22;15737;49.760;6.632;2023-03-21T10:11:16;11.30;99.90
28530;DHT22;15737;49.760;6.632;2023-03-21T10:14:05;11.30;99.90
28530;DHT22;15737;49.760;6.632;2023-03-21T10:16:36;11.40;99.90
28530;DHT22;15737;49.760;6.632;2023-03-21T10:19:14;11.40;99.90
28530;DHT22;15737;49.760;6.632;2023-03-21T10:21:42;11.40;99.90
28530;DHT22;15737;49.760;6.632;2023-03-21T10:24:25;11.50;99.90
28530;DHT22;15737;49.760;6.632;2023-03-21T10:27:13;11.40;99.90
28530;DHT22;15737;49.760;6.632;2023-03-21T10:32:25;11.10;99.90
28530;DHT22;15737;49.760;6.632;2023-03-21T10:37:30;10.80;99.90
28530;DHT22;15737;49.760;6.632;2023-03-21T10:39:56;10.70;99.90
28530;DHT22;15737;49.760;6.632;2023-03-21T10:42:28;10.40;99.90
28530;DHT22;15737;49.760;6.632;2023-03-21T10:44:56;10.10;99.90
28530;DHT22;15737;49.760;6.632;2023-03-21T10:47:28;9.90;99.90
28530;DHT22;15737;49.760;6.632;2023-03-21T10:52:27;9.70;99.90
28530;DHT22;15737;49.760;6.632;2023-03-21T10:55:07;9.70;99.90
28530;DHT22;15737;49.760;6.632;2023-03-21T10:57:37;9.70;99.90
28530;DHT22;15737;49.760;6.632;2023-03-21T11:00:04;9.60;99.90
28530;DHT22;15737;49.760;6.632;2023-03-21T11:02:41;9.70;99.90
28530;DHT22;15737;49.760;6.632;2023-03-21T11:05:34;9.60;99.90
28530;DHT22;15737;49.760;6.632;2023-03-21T11:10:35;9.70;99.90
28530;DHT22;15737;49.760;6.632;2023-03-21T11:13:07;9.80;99.90
28530;DHT22;15737;49.760;6.632;2023-03-21T11:18:32;9.80;99.90
28530;DHT22;15737;49.760;6.632;2023-03-21T11:21:02;9.80;99.90
28530;DHT22;15737;49.760;6.632;2023-03-21T11:23:30;9.80;99.90
28530;DHT22;15737;49.760;6.632;2023-03-21T11:25:59;9.90;99.90
28530;DHT22;15737;49.760;6.632;2023-03-21T11:28:31;10.20;99.90
28530;DHT22;15737;49.760;6.632;2023-03-21T11:31:02;10.20;99.90
28530;DHT22;15737;49.760;6.632;2023-03-21T11:33:44;10.40;99.90
28530;DHT22;15737;49.760;6.632;2023-03-21T11:36:33;10.70;99.90
28530;DHT22;15737;49.760;6.632;2023-03-21T11:39:23;10.60;99.90
28530;DHT22;15737;49.760;6.632;2023-03-21T11:41:52;10.60;99.90
28530;DHT22;15737;49.760;6.632;2023-03-21T11:44:30;10.50;99.90
28530;DHT22;15737;49.760;6.632;2023-03-21T11:46:57;10.60;99.90
28530;DHT22;15737;49.760;6.632;2023-03-21T11:49:23;10.80;99.90
28530;DHT22;15737;49.760;6.632;2023-03-21T11:52:12;10.90;99.90
28530;DHT22;15737;49.760;6.632;2023-03-21T11:55:01;11.00;99.90
28530;DHT22;15737;49.760;6.632;2023-03-21T12:00:25;11.10;99.90
28530;DHT22;15737;49.760;6.632;2023-03-21T12:03:17;11.10;99.90
28530;DHT22;15737;49.760;6.632;2023-03-21T12:05:53;11.30;99.90
28530;DHT22;15737;49.760;6.632;2023-03-21T12:11:14;11.90;99.90
28530;DHT22;15737;49.760;6.632;2023-03-21T12:13:56;12.30;99.90
28530;DHT22;15737;49.760;6.632;2023-03-21T12:16:46;12.40;99.90
28530;DHT22;15737;49.760;6.632;2023-03-21T12:25:13;12.00;99.90
28530;DHT22;15737;49.760;6.632;2023-03-21T12:28:01;12.20;99.90
28530;DHT22;15737;49.760;6.632;2023-03-21T12:30:41;12.60;99.90
28530;DHT22;15737;49.760;6.632;2023-03-21T12:33:18;13.10;99.90
28530;DHT22;15737;49.760;6.632;2023-03-21T12:36:05;13.40;99.90
28530;DHT22;15737;49.760;6.632;2023-03-21T12:38:40;13.80;99.90
28530;DHT22;15737;49.760;6.632;2023-03-21T12:49:09;14.60;99.90
28530;DHT22;15737;49.760;6.632;2023-03-21T12:51:45;14.50;99.90
28530;DHT22;15737;49.760;6.632;2023-03-21T12:56:54;13.90;99.90
28530;DHT22;15737;49.760;6.632;2023-03-21T12:59:53;13.60;99.90
28530;DHT22;15737;49.760;6.632;2023-03-21T13:05:17;13.10;99.90
28530;DHT22;15737;49.760;6.632;2023-03-21T13:07:49;12.80;99.90
28530;DHT22;15737;49.760;6.632;2023-03-21T13:19:02;13.20;99.90
28530;DHT22;15737;49.760;6.632;2023-03-21T13:26:47;13.20;99.90
28530;DHT22;15737;49.760;6.632;2023-03-21T13:29:25;13.20;99.90
28530;DHT22;15737;49.760;6.632;2023-03-21T13:31:53;13.10;99.90
28530;DHT22;15737;49.760;6.632;2023-03-21T13:34:34;13.10;99.90
28530;DHT22;15737;49.760;6.632;2023-03-21T13:37:02;13.30;99.90
28530;DHT22;15737;49.760;6.632;2023-03-21T13:39:28;13.50;99.90
28530;DHT22;15737;49.760;6.632;2023-03-21T13:42:02;13.50;99.90
28530;DHT22;15737;49.760;6.632;2023-03-21T13:44:39;13.30;99.90
28530;DHT22;15737;49.760;6.632;2023-03-21T13:55:40;14.20;99.90
28530;DHT22;15737;49.760;6.632;2023-03-21T14:03:15;14.00;99.90
28530;DHT22;15737;49.760;6.632;2023-03-21T14:05:48;13.90;99.90
28530;DHT22;15737;49.760;6.632;2023-03-21T14:08:17;13.90;99.90
28530;DHT22;15737;49.760;6.632;2023-03-21T14:10:50;13.90;99.90
28530;DHT22;15737;49.760;6.632;2023-03-21T14:13:22;14.00;99.90
28530;DHT22;15737;49.760;6.632;2023-03-21T14:18:23;14.40;99.90
28530;DHT22;15737;49.760;6.632;2023-03-21T14:20:56;14.50;99.90
28530;DHT22;15737;49.760;6.632;2023-03-21T14:23:25;14.70;99.90
28530;DHT22;15737;49.760;6.632;2023-03-21T14:25:51;14.90;99.90
28530;DHT22;15737;49.760;6.632;2023-03-21T14:28:25;14.80;99.90
28530;DHT22;15737;49.760;6.632;2023-03-21T14:31:02;14.70;99.90
28530;DHT22;15737;49.760;6.632;2023-03-21T14:33:39;14.70;99.90
28530;DHT22;15737;49.760;6.632;2023-03-21T14:36:11;14.60;99.90
28530;DHT22;15737;49.760;6.632;2023-03-21T14:38:39;14.40;99.90
28530;DHT22;15737;49.760;6.632;2023-03-21T14:41:17;14.20;99.90
28530;DHT22;15737;49.760;6.632;2023-03-21T14:46:32;14.00;99.90
28530;DHT22;15737;49.760;6.632;2023-03-21T14:49:16;13.80;99.90
28530;DHT22;15737;49.760;6.632;2023-03-21T14:51:42;13.70;99.90
28530;DHT22;15737;49.760;6.632;2023-03-21T14:54:15;13.70;99.90
28530;DHT22;15737;49.760;6.632;2023-03-21T14:56:50;13.80;99.90
28530;DHT22;15737;49.760;6.632;2023-03-21T14:59:20;13.80;99.90
28530;DHT22;15737;49.760;6.632;2023-03-21T15:01:48;14.00;99.90
28530;DHT22;15737;49.760;6.632;2023-03-21T15:04:15;14.00;99.90
28530;DHT22;15737;49.760;6.632;2023-03-21T15:09:33;14.00;99.90
28530;DHT22;15737;49.760;6.632;2023-03-21T15:11:59;13.90;99.90
28530;DHT22;15737;49.760;6.632;2023-03-21T15:14:31;13.90;99.90
28530;DHT22;15737;49.760;6.632;2023-03-21T15:16:59;14.00;99.90
28530;DHT22;15737;49.760;6.632;2023-03-21T15:19:32;14.10;99.90
28530;DHT22;15737;49.760;6.632;2023-03-21T15:24:36;14.20;99.90
28530;DHT22;15737;49.760;6.632;2023-03-21T15:27:10;14.20;99.90
28530;DHT22;15737;49.760;6.632;2023-03-21T15:29:37;14.40;99.90
28530;DHT22;15737;49.760;6.632;2023-03-21T15:32:05;14.50;99.90
28530;DHT22;15737;49.760;6.632;2023-03-21T15:34:31;14.30;99.90
28530;DHT22;15737;49.760;6.632;2023-03-21T15:39:28;14.00;99.90
28530;DHT22;15737;49.760;6.632;2023-03-21T15:42:03;14.00;99.90
28530;DHT22;15737;49.760;6.632;2023-03-21T15:44:29;14.00;99.90
28530;DHT22;15737;49.760;6.632;2023-03-21T15:46:56;14.00;99.90
28530;DHT22;15737;49.760;6.632;2023-03-21T15:49:30;14.00;99.90
28530;DHT22;15737;49.760;6.632;2023-03-21T15:59:48;14.20;99.90
28530;DHT22;15737;49.760;6.632;2023-03-21T16:02:19;14.10;99.90
28530;DHT22;15737;49.760;6.632;2023-03-21T16:07:47;14.10;99.90
28530;DHT22;15737;49.760;6.632;2023-03-21T16:10:29;14.20;99.90
28530;DHT22;15737;49.760;6.632;2023-03-21T16:12:56;14.40;99.90
28530;DHT22;15737;49.760;6.632;2023-03-21T16:15:26;14.40;99.90
28530;DHT22;15737;49.760;6.632;2023-03-21T16:18:00;14.40;99.90
28530;DHT22;15737;49.760;6.632;2023-03-21T16:20:30;14.20;99.90
28530;DHT22;15737;49.760;6.632;2023-03-21T16:22:57;14.10;99.90
28530;DHT22;15737;49.760;6.632;2023-03-21T16:25:24;14.10;99.90
28530;DHT22;15737;49.760;6.632;2023-03-21T16:30:21;13.80;99.90
28530;DHT22;15737;49.760;6.632;2023-03-21T16:32:47;13.80;99.90
28530;DHT22;15737;49.760;6.632;2023-03-21T16:35:15;13.80;99.90
28530;DHT22;15737;49.760;6.632;2023-03-21T16:37:40;13.80;99.90
28530;DHT22;15737;49.760;6.632;2023-03-21T16:45:15;13.90;99.90
28530;DHT22;15737;49.760;6.632;2023-03-21T16:47:41;14.00;99.90
28530;DHT22;15737;49.760;6.632;2023-03-21T16:50:34;14.00;99.90
28530;DHT22;15737;49.760;6.632;2023-03-21T16:53:00;13.90;99.90
28530;DHT22;15737;49.760;6.632;2023-03-21T16:55:26;13.70;99.90
28530;DHT22;15737;49.760;6.632;2023-03-21T16:57:53;13.80;99.90
28530;DHT22;15737;49.760;6.632;2023-03-21T17:00:21;13.90;99.90
28530;DHT22;15737;49.760;6.632;2023-03-21T17:02:48;14.00;99.90
28530;DHT22;15737;49.760;6.632;2023-03-21T17:05:23;14.00;99.90
28530;DHT22;15737;49.760;6.632;2023-03-21T17:07:58;13.90;99.90
28530;DHT22;15737;49.760;6.632;2023-03-21T17:10:28;13.90;99.90
28530;DHT22;15737;49.760;6.632;2023-03-21T17:12:54;13.90;99.90
28530;DHT22;15737;49.760;6.632;2023-03-21T17:15:28;13.90;99.90
28530;DHT22;15737;49.760;6.632;2023-03-21T17:17:54;13.90;99.90
28530;DHT22;15737;49.760;6.632;2023-03-21T17:20:38;13.70;99.90
28530;DHT22;15737;49.760;6.632;2023-03-21T17:23:05;13.50;99.90
28530;DHT22;15737;49.760;6.632;2023-03-21T17:25:32;13.40;99.90
28530;DHT22;15737;49.760;6.632;2023-03-21T17:27:57;13.30;99.90
28530;DHT22;15737;49.760;6.632;2023-03-21T17:32:57;13.00;99.90
28530;DHT22;15737;49.760;6.632;2023-03-21T17:35:24;12.90;99.90
28530;DHT22;15737;49.760;6.632;2023-03-21T17:37:50;12.80;99.90
28530;DHT22;15737;49.760;6.632;2023-03-21T17:40:38;12.80;99.90
28530;DHT22;15737;49.760;6.632;2023-03-21T17:43:04;12.70;99.90
28530;DHT22;15737;49.760;6.632;2023-03-21T17:48:00;12.60;99.90
28530;DHT22;15737;49.760;6.632;2023-03-21T17:50:31;12.60;99.90
28530;DHT22;15737;49.760;6.632;2023-03-21T17:52:58;12.60;99.90
28530;DHT22;15737;49.760;6.632;2023-03-21T17:55:24;12.70;99.90
28530;DHT22;15737;49.760;6.632;2023-03-21T17:57:50;12.60;99.90
28530;DHT22;15737;49.760;6.632;2023-03-21T18:05:22;12.60;99.90
28530;DHT22;15737;49.760;6.632;2023-03-21T18:07:49;12.60;99.90
28530;DHT22;15737;49.760;6.632;2023-03-21T18:10:22;12.60;99.90
28530;DHT22;15737;49.760;6.632;2023-03-21T18:12:49;12.60;99.90
28530;DHT22;15737;49.760;6.632;2023-03-21T18:17:49;12.50;99.90
28530;DHT22;15737;49.760;6.632;2023-03-21T18:20:18;12.50;99.90
28530;DHT22;15737;49.760;6.632;2023-03-21T18:22:45;12.50;99.90
28530;DHT22;15737;49.760;6.632;2023-03-21T18:25:13;12.40;99.90
28530;DHT22;15737;49.760;6.632;2023-03-21T18:27:39;12.50;99.90
28530;DHT22;15737;49.760;6.632;2023-03-21T18:35:19;12.40;99.90
28530;DHT22;15737;49.760;6.632;2023-03-21T18:37:45;12.40;99.90
28530;DHT22;15737;49.760;6.632;2023-03-21T18:40:12;12.40;99.90
28530;DHT22;15737;49.760;6.632;2023-03-21T18:42:39;12.40;99.90
28530;DHT22;15737;49.760;6.632;2023-03-21T18:47:41;12.40;99.90
28530;DHT22;15737;49.760;6.632;2023-03-21T18:50:07;12.30;99.90
28530;DHT22;15737;49.760;6.632;2023-03-21T18:52:34;12.30;99.90
28530;DHT22;15737;49.760;6.632;2023-03-21T18:54:59;12.30;99.90
28530;DHT22;15737;49.760;6.632;2023-03-21T18:57:25;12.20;99.90
28530;DHT22;15737;49.760;6.632;2023-03-21T18:59:51;12.30;99.90